Quitman, Mississippi
Current Conditions -  °F | °C
As of 9:58 AM on Sunday 25 Jan 2015 (Local Time) from KMEI Reporting Station
Clear Clear  
Wind Chill: 44°   Ceiling: Unl
Heat Index: 49°   Visibility: 10mi
Dew Point: 40°   Wind: 12mph
Humidity: 71%   Direction: 190°S
Pressure: 29.93"   Gusts: NA
Location:  32.04°N, 88.73°W
Report Text: KMEI 251558Z 19010KT 10SM CLR 09/04 A2993 RMK AO2 SLP135 T00940044
Loading
Personal Weather Stations






























Interactive Weather Map New forecast layout! Learn more

10-Day Weather Forecast

Advertisements
Track Severe Weather on mobile